Time;durP1;ratioP1;P1;durP2;ratioP2;P2;SDS_P1;SDS_P2;PMS_P1;PMS_P2;Temp;Humidity;BMP_temperature;BMP_pressure;BME280_temperature;BME280_humidity;BME280_pressure;Samples;Min_cycle;Max_cycle;Signal;HPM_P1;HPM_P2
2023/08/18 00:00:34;;;;;;;20.75;18.52;;;;;;;-141.84;100.00;20110.56;5044947;28;20324;-66
2023/08/18 00:03:02;;;;;;;21.65;19.13;;;;;;;-141.84;100.00;20098.38;5044317;28;20724;-67
2023/08/18 00:05:32;;;;;;;20.70;18.50;;;;;;;-141.84;100.00;20110.56;5036651;28;20220;-67
2023/08/18 00:08:00;;;;;;;24.20;18.73;;;;;;;-141.84;100.00;20088.22;5044724;28;20229;-67
2023/08/18 00:10:29;;;;;;;20.98;18.48;;;;;;;-141.84;100.00;20065.84;5044189;28;20284;-66
2023/08/18 00:12:58;;;;;;;22.45;19.30;;;;;;;-141.84;100.00;20082.13;5027370;28;20241;-65
2023/08/18 00:15:27;;;;;;;21.35;19.05;;;;;;;-141.84;100.00;20065.84;5016240;28;20245;-66
2023/08/18 00:17:55;;;;;;;21.58;19.33;;;;;;;-141.84;100.00;20078.06;5032249;28;20225;-66
2023/08/18 00:20:24;;;;;;;20.63;18.42;;;;;;;-141.84;100.00;20088.22;5044436;28;20241;-66
2023/08/18 00:22:52;;;;;;;23.92;20.00;;;;;;;-141.84;100.00;20059.75;5044463;28;20288;-66
2023/08/18 00:25:21;;;;;;;25.33;20.33;;;;;;;-141.84;100.00;20053.66;5042963;28;20233;-66
2023/08/18 00:27:49;;;;;;;22.77;19.08;;;;;;;-141.84;100.00;20053.66;5042169;28;20650;-66
2023/08/18 00:30:24;;;;;;;26.45;22.10;;;;;;;-141.84;100.00;20057.72;5052407;28;20243;-65
2023/08/18 00:32:52;;;;;;;24.95;22.17;;;;;;;-141.84;100.00;20010.97;5060690;28;20225;-68
2023/08/18 00:35:21;;;;;;;25.35;21.77;;;;;;;-141.84;100.00;20002.84;5042203;28;20308;-67
2023/08/18 00:37:49;;;;;;;27.27;23.15;;;;;;;-141.84;100.00;20017.09;5047448;28;20586;-66
2023/08/18 00:40:18;;;;;;;24.38;21.70;;;;;;;-141.84;100.00;20017.09;5063605;28;20258;-66
2023/08/18 00:42:47;;;;;;;26.42;23.30;;;;;;;-141.84;100.00;20027.25;5063413;28;20255;-66
2023/08/18 00:45:15;;;;;;;26.52;22.73;;;;;;;-141.84;100.00;20041.47;5058652;28;20818;-66
2023/08/18 00:47:45;;;;;;;24.98;21.98;;;;;;;-141.84;100.00;20031.31;5036306;28;20276;-66
2023/08/18 00:50:15;;;;;;;27.27;21.13;;;;;;;-141.84;100.00;20031.31;5043755;28;20209;-66
2023/08/18 00:52:44;;;;;;;32.58;23.90;;;;;;;-141.84;100.00;20031.31;5044050;28;20300;-66
2023/08/18 00:55:13;;;;;;;26.65;21.95;;;;;;;-141.84;100.00;20008.94;5049213;28;20316;-66
2023/08/18 00:57:43;;;;;;;28.95;23.55;;;;;;;-141.84;100.00;20025.22;5021939;28;20815;-66
2023/08/18 01:00:12;;;;;;;27.80;23.65;;;;;;;-141.84;100.00;20047.56;5023344;28;20230;-65
2023/08/18 01:02:41;;;;;;;27.52;24.30;;;;;;;-141.84;100.00;20035.38;5029588;28;20785;-67
2023/08/18 01:05:10;;;;;;;31.15;26.02;;;;;;;-141.84;100.00;20086.19;5043194;28;20266;-66
2023/08/18 01:07:39;;;;;;;27.35;24.02;;;;;;;-141.84;100.00;20080.09;5036055;28;20237;-65
2023/08/18 01:10:08;;;;;;;26.58;23.38;;;;;;;-141.84;100.00;20047.56;5042312;28;20308;-65
2023/08/18 01:12:46;;;;;;;27.60;24.02;;;;;;;-141.84;100.00;20049.59;5029437;28;20226;-67
2023/08/18 01:15:20;;;;;;;28.95;24.25;;;;;;;-141.84;100.00;20069.94;5022998;28;20929;-66
2023/08/18 01:17:51;;;;;;;27.65;23.60;;;;;;;-141.84;100.00;20027.25;5030259;28;20283;-65
2023/08/18 01:20:22;;;;;;;27.83;23.52;;;;;;;-141.84;100.00;20055.69;5042981;28;20792;-67
2023/08/18 01:22:57;;;;;;;27.00;22.92;;;;;;;-141.84;100.00;20031.31;5043507;28;20284;-66
2023/08/18 01:25:26;;;;;;;29.30;25.02;;;;;;;-141.84;100.00;20035.38;5035135;28;20252;-65
2023/08/18 01:27:57;;;;;;;28.48;23.75;;;;;;;-141.84;100.00;19982.53;5026453;28;20233;-66
2023/08/18 01:30:30;;;;;;;31.75;26.23;;;;;;;-141.84;100.00;20053.66;5045294;28;20252;-65
2023/08/18 01:33:05;;;;;;;28.83;25.52;;;;;;;-141.84;100.00;20025.22;5058863;28;20217;-67
2023/08/18 01:35:34;;;;;;;29.67;25.67;;;;;;;-141.84;100.00;20013.00;5053427;28;20228;-65
2023/08/18 01:38:06;;;;;;;29.30;25.83;;;;;;;-141.84;100.00;20069.94;5062653;28;20201;-67
2023/08/18 01:40:36;;;;;;;29.60;26.08;;;;;;;-141.84;100.00;20029.28;5063060;28;20736;-66
2023/08/18 01:43:05;;;;;;;27.52;24.33;;;;;;;-141.84;100.00;20069.94;5062898;28;20324;-66
2023/08/18 01:45:35;;;;;;;28.33;25.23;;;;;;;-141.84;100.00;20047.56;5049156;28;20724;-65
2023/08/18 01:48:04;;;;;;;29.95;26.85;;;;;;;-141.84;100.00;20074.00;5042819;28;20228;-65
2023/08/18 01:50:33;;;;;;;28.85;25.70;;;;;;;-141.84;100.00;20078.06;5042932;28;20225;-65
2023/08/18 01:53:03;;;;;;;28.13;25.13;;;;;;;-141.84;100.00;20122.78;5042032;28;20263;-65
2023/08/18 01:55:31;;;;;;;27.48;24.67;;;;;;;-141.84;100.00;20143.09;5035472;28;20263;-65
2023/08/18 01:58:00;;;;;;;28.10;25.30;;;;;;;-141.84;100.00;20167.47;5042158;28;20244;-65
2023/08/18 02:00:28;;;;;;;28.15;24.52;;;;;;;-141.84;100.00;20181.72;5042246;28;20239;-67
2023/08/18 02:02:57;;;;;;;27.10;23.90;;;;;;;-141.84;100.00;20232.53;5026471;28;20295;-65
2023/08/18 02:05:25;;;;;;;26.85;24.15;;;;;;;-141.84;100.00;20222.38;5024522;28;20233;-65
2023/08/18 02:07:54;;;;;;;28.00;25.30;;;;;;;-141.84;100.00;20260.97;5042913;28;20307;-65
2023/08/18 02:10:25;;;;;;;29.08;26.02;;;;;;;-141.84;100.00;20328.06;5021948;28;20652;-66
2023/08/18 02:12:53;;;;;;;28.50;25.65;;;;;;;-141.84;100.00;20376.84;5022360;28;20667;-65
2023/08/18 02:15:22;;;;;;;28.75;25.17;;;;;;;-141.84;100.00;20384.97;5020509;28;20272;-65
2023/08/18 02:17:50;;;;;;;30.25;26.67;;;;;;;-141.84;100.00;20389.03;5030248;28;20290;-66
2023/08/18 02:20:19;;;;;;;30.15;26.60;;;;;;;-141.84;100.00;20370.75;5045515;28;20295;-64
2023/08/18 02:22:48;;;;;;;33.05;26.85;;;;;;;-141.84;100.00;20389.03;5046786;28;20267;-65
2023/08/18 02:25:16;;;;;;;30.08;26.88;;;;;;;-141.84;100.00;20423.59;5045727;28;20225;-65
2023/08/18 02:27:46;;;;;;;31.33;27.27;;;;;;;-141.84;100.00;20411.41;5038588;28;20245;-65
2023/08/18 02:30:15;;;;;;;31.10;26.60;;;;;;;-141.84;100.00;20354.47;5054380;28;20224;-66
2023/08/18 02:32:44;;;;;;;37.00;27.40;;;;;;;-141.84;100.00;20378.88;5064830;28;20228;-65
2023/08/18 02:35:12;;;;;;;32.47;28.10;;;;;;;-141.84;100.00;20376.84;5046214;28;20247;-65
2023/08/18 02:37:41;;;;;;;28.27;25.27;;;;;;;-141.84;100.00;20352.44;5039156;28;20921;-65
2023/08/18 02:40:10;;;;;;;28.33;25.23;;;;;;;-141.84;100.00;20389.03;5045847;28;20310;-66
2023/08/18 02:42:38;;;;;;;29.80;25.60;;;;;;;-141.84;100.00;20409.38;5045909;28;20237;-65
2023/08/18 02:45:09;;;;;;;27.50;24.60;;;;;;;-141.84;100.00;20437.81;5046045;28;20222;-65
2023/08/18 02:47:39;;;;;;;46.25;25.05;;;;;;;-141.84;100.00;20344.31;5038375;28;20773;-64
2023/08/18 02:50:08;;;;;;;33.35;25.17;;;;;;;-141.84;100.00;20374.81;5045991;28;20696;-65
2023/08/18 02:52:36;;;;;;;26.13;23.45;;;;;;;-141.84;100.00;20346.34;5046119;28;20724;-65
2023/08/18 02:55:05;;;;;;;29.73;25.77;;;;;;;-141.84;100.00;20364.66;5045708;28;20280;-65
2023/08/18 02:57:34;;;;;;;27.50;24.13;;;;;;;-141.84;100.00;20285.38;5034735;28;20327;-66
2023/08/18 03:00:04;;;;;;;30.92;26.45;;;;;;;-141.84;100.00;20338.22;5026089;28;20230;-66
2023/08/18 03:02:33;;;;;;;34.88;26.70;;;;;;;-141.84;100.00;20293.50;5025655;28;20256;-66
2023/08/18 03:05:03;;;;;;;54.97;29.25;;;;;;;-141.84;100.00;20297.56;5031154;28;20198;-66
2023/08/18 03:07:31;;;;;;;56.55;30.23;;;;;;;-141.84;100.00;20303.66;5038438;28;20706;-65
2023/08/18 03:10:01;;;;;;;35.67;27.90;;;;;;;-141.84;100.00;20309.75;5044813;28;20324;-66
2023/08/18 03:12:29;;;;;;;34.03;27.98;;;;;;;-141.84;100.00;20305.69;5032461;28;20648;-65
2023/08/18 03:14:57;;;;;;;42.83;27.42;;;;;;;-141.84;100.00;20297.56;5025273;28;20356;-65
2023/08/18 03:17:26;;;;;;;42.53;28.00;;;;;;;-141.84;100.00;20315.88;5021954;28;20313;-66
2023/08/18 03:19:57;;;;;;;34.78;26.48;;;;;;;-141.84;100.00;20317.91;5045480;28;20214;-65
2023/08/18 03:22:25;;;;;;;34.53;28.15;;;;;;;-141.84;100.00;20277.25;5045375;28;20312;-65
2023/08/18 03:24:53;;;;;;;32.58;26.63;;;;;;;-141.84;100.00;20252.84;5045073;28;20260;-65
2023/08/18 03:27:22;;;;;;;43.78;28.77;;;;;;;-141.84;100.00;20246.75;5047516;28;20579;-65
2023/08/18 03:29:51;;;;;;;34.78;27.42;;;;;;;-141.84;100.00;20252.84;5050256;28;20224;-64
2023/08/18 03:32:19;;;;;;;44.70;28.35;;;;;;;-141.84;100.00;20260.97;5064192;28;20252;-66
2023/08/18 03:34:47;;;;;;;45.22;28.95;;;;;;;-141.84;100.00;20265.03;5046671;28;20292;-66
2023/08/18 03:37:17;;;;;;;37.78;27.90;;;;;;;-141.84;100.00;20269.13;5045273;28;20225;-65
2023/08/18 03:39:46;;;;;;;35.40;27.17;;;;;;;-141.84;100.00;20252.84;5037373;28;20324;-66
2023/08/18 03:42:15;;;;;;;36.78;28.50;;;;;;;-141.84;100.00;20263.00;5044999;28;20321;-66
2023/08/18 03:44:43;;;;;;;44.55;29.98;;;;;;;-141.84;100.00;20246.75;5044422;28;20263;-66
2023/08/18 03:47:11;;;;;;;40.25;30.38;;;;;;;-141.84;100.00;20234.56;5044916;28;20248;-65
2023/08/18 03:49:40;;;;;;;43.17;30.63;;;;;;;-141.84;100.00;20236.59;5037714;28;20205;-66
2023/08/18 03:52:08;;;;;;;40.70;29.85;;;;;;;-141.84;100.00;20230.50;5044380;28;20261;-66
2023/08/18 03:54:38;;;;;;;47.13;32.38;;;;;;;-141.84;100.00;20248.78;5042446;28;20249;-66
2023/08/18 03:57:07;;;;;;;51.05;32.65;;;;;;;-141.84;100.00;20222.38;5044681;28;20403;-65
2023/08/18 03:59:35;;;;;;;43.25;31.30;;;;;;;-141.84;100.00;20226.44;5036316;28;20257;-66
2023/08/18 04:02:04;;;;;;;39.80;28.75;;;;;;;-141.84;100.00;20218.31;5044350;28;20205;-65
2023/08/18 04:04:32;;;;;;;46.72;32.40;;;;;;;-141.84;100.00;20246.75;5044846;28;20248;-67
2023/08/18 04:07:01;;;;;;;46.42;31.60;;;;;;;-141.84;100.00;20246.75;5044212;28;20326;-66
2023/08/18 04:09:29;;;;;;;48.88;32.05;;;;;;;-141.84;100.00;20226.44;5036148;28;20260;-66
2023/08/18 04:11:59;;;;;;;47.78;31.70;;;;;;;-141.84;100.00;20202.03;5035311;28;20317;-66
2023/08/18 04:14:27;;;;;;;47.25;32.05;;;;;;;-141.84;100.00;20163.41;5023942;28;20225;-65
2023/08/18 04:16:56;;;;;;;49.20;33.17;;;;;;;-141.84;100.00;20134.97;5024117;28;20240;-66
2023/08/18 04:19:24;;;;;;;46.55;30.00;;;;;;;-141.84;100.00;20134.97;5036779;28;20296;-66
2023/08/18 04:21:53;;;;;;;49.67;33.03;;;;;;;-141.84;100.00;20132.94;5044357;28;20279;-67
2023/08/18 04:24:22;;;;;;;52.58;32.97;;;;;;;-141.84;100.00;20116.66;5062120;28;20232;-65
2023/08/18 04:26:58;;;;;;;41.63;29.45;;;;;;;-141.84;100.00;20098.38;5063783;28;20307;-66
2023/08/18 04:29:28;;;;;;;46.42;31.70;;;;;;;-141.84;100.00;20120.75;5055681;28;20804;-66
2023/08/18 04:31:56;;;;;;;42.45;30.48;;;;;;;-141.84;100.00;20090.25;5063447;28;20209;-66
2023/08/18 04:34:26;;;;;;;38.10;28.50;;;;;;;-141.84;100.00;20096.34;5048392;28;20209;-67
2023/08/18 04:36:54;;;;;;;41.88;30.77;;;;;;;-141.84;100.00;20102.44;5043870;28;20237;-67
2023/08/18 04:39:23;;;;;;;34.53;26.52;;;;;;;-141.84;100.00;20108.53;5040487;28;20359;-65
2023/08/18 04:41:51;;;;;;;36.22;27.73;;;;;;;-141.84;100.00;20128.88;5043077;28;20651;-67
2023/08/18 04:44:20;;;;;;;36.08;27.42;;;;;;;-141.84;100.00;20108.53;5043280;28;20232;-66
2023/08/18 04:46:49;;;;;;;35.83;27.98;;;;;;;-141.84;100.00;20139.03;5043769;28;20217;-66
2023/08/18 04:49:18;;;;;;;32.47;25.20;;;;;;;-141.84;100.00;20108.53;5043185;28;20229;-67
2023/08/18 04:51:47;;;;;;;36.00;27.05;;;;;;;-141.84;100.00;20114.63;5037553;28;20275;-66
2023/08/18 04:54:17;;;;;;;33.03;27.58;;;;;;;-141.84;100.00;20141.06;5042998;28;20588;-67
2023/08/18 04:56:46;;;;;;;32.67;25.90;;;;;;;-141.84;100.00;20177.66;5043514;28;20318;-66
2023/08/18 04:59:15;;;;;;;31.60;26.10;;;;;;;-141.84;100.00;20228.47;5043581;28;20266;-67
2023/08/18 05:01:43;;;;;;;32.88;27.23;;;;;;;-141.84;100.00;20252.84;5036542;28;20293;-65
2023/08/18 05:04:13;;;;;;;33.80;26.30;;;;;;;-141.84;100.00;20303.66;5043596;28;20700;-66
2023/08/18 05:06:42;;;;;;;26.23;21.95;;;;;;;-141.84;100.00;20309.75;5043146;28;20700;-66
2023/08/18 05:09:10;;;;;;;31.48;25.85;;;;;;;-141.84;100.00;20330.09;5043042;28;20225;-66
2023/08/18 05:11:39;;;;;;;29.65;24.90;;;;;;;-141.84;100.00;20342.28;5029568;28;20548;-66
2023/08/18 05:14:07;;;;;;;30.05;24.58;;;;;;;-141.84;100.00;20360.59;5024958;28;20283;-66
2023/08/18 05:16:36;;;;;;;27.58;23.70;;;;;;;-141.84;100.00;20382.94;5043470;28;20271;-66
2023/08/18 05:19:05;;;;;;;24.27;20.80;;;;;;;-141.84;100.00;20358.56;5048681;28;20240;-67
2023/08/18 05:21:35;;;;;;;24.33;21.73;;;;;;;-141.84;99.93;20391.06;5054647;28;20235;-67
2023/08/18 05:24:04;;;;;;;20.38;18.27;;;;;;;-141.84;100.00;20399.19;5063143;28;20322;-68
2023/08/18 05:26:32;;;;;;;25.42;22.10;;;;;;;-141.84;100.00;20401.22;5057933;28;20277;-67
2023/08/18 05:29:01;;;;;;;23.75;20.88;;;;;;;-141.84;96.58;20502.88;5042573;28;20755;-66
2023/08/18 05:31:30;;;;;;;24.98;21.58;;;;;;;-141.84;94.30;20517.09;5054184;28;20695;-67
2023/08/18 05:33:59;;;;;;;22.70;20.30;;;;;;;-141.84;93.47;20535.41;5062500;28;20234;-67
2023/08/18 05:36:27;;;;;;;22.42;20.02;;;;;;;-141.84;94.26;20517.09;5062542;28;20335;-67
2023/08/18 05:38:57;;;;;;;20.85;18.83;;;;;;;-141.84;91.46;20567.91;5062795;28;20311;-67
2023/08/18 05:41:26;;;;;;;19.00;17.15;;;;;;;-141.84;91.78;20529.28;5054675;28;20231;-66
2023/08/18 05:43:54;;;;;;;20.08;18.08;;;;;;;-141.84;92.58;20551.66;5063028;28;20236;-66
2023/08/18 05:46:23;;;;;;;19.65;17.73;;;;;;;-141.84;92.96;20551.66;5050654;28;20307;-68
2023/08/18 05:48:51;;;;;;;20.15;17.98;;;;;;;-141.84;92.05;20561.81;5042657;28;20237;-67
2023/08/18 05:51:20;;;;;;;16.58;14.93;;;;;;;-141.84;92.32;20559.78;5042426;28;20316;-68
2023/08/18 05:53:48;;;;;;;19.17;17.27;;;;;;;-141.84;92.58;20590.28;5039707;28;20245;-68
2023/08/18 05:56:18;;;;;;;19.67;17.77;;;;;;;-141.84;90.30;20618.72;5042475;28;20672;-66
2023/08/18 05:58:47;;;;;;;20.30;18.20;;;;;;;-141.84;90.71;20618.72;5042706;28;20672;-68
2023/08/18 06:01:17;;;;;;;18.70;16.85;;;;;;;-141.84;91.12;20569.94;5042092;28;20263;-66
2023/08/18 06:03:45;;;;;;;20.55;18.55;;;;;;;-141.84;91.18;20592.31;5035464;28;20237;-66
2023/08/18 06:06:14;;;;;;;21.00;18.85;;;;;;;-141.84;90.05;20610.59;5042773;28;20237;-67
2023/08/18 06:08:42;;;;;;;21.55;19.15;;;;;;;-141.84;89.18;20602.47;5042111;28;20304;-67
2023/08/18 06:11:11;;;;;;;21.77;19.48;;;;;;;-141.84;90.39;20632.97;5042152;28;20291;-68
2023/08/18 06:13:41;;;;;;;21.92;18.95;;;;;;;-141.84;91.28;20569.94;5035593;28;20209;-68
2023/08/18 06:16:10;;;;;;;22.35;19.73;;;;;;;-141.84;91.35;20586.22;5044048;28;20225;-67
2023/08/18 06:18:38;;;;;;;20.38;18.13;;;;;;;-141.84;91.86;20565.88;5041981;28;20233;-70
2023/08/18 06:21:08;;;;;;;18.45;16.50;;;;;;;-141.84;92.65;20535.41;5052068;28;20286;-68
2023/08/18 06:23:37;;;;;;;22.58;20.17;;;;;;;-141.84;93.06;20549.63;5054609;28;20323;-67
2023/08/18 06:26:06;;;;;;;19.80;17.70;;;;;;;-141.84;93.72;20521.16;5051939;28;20263;-66
2023/08/18 06:28:34;;;;;;;23.05;19.98;;;;;;;-141.84;93.40;20527.25;5022954;28;20265;-66
2023/08/18 06:31:08;;;;;;;22.55;20.15;;;;;;;-141.84;93.49;20557.75;5036819;28;20220;-67
2023/08/18 06:33:36;;;;;;;22.08;19.13;;;;;;;-141.84;93.63;20539.47;5048332;28;20255;-67
2023/08/18 06:36:06;;;;;;;23.85;21.10;;;;;;;-141.84;93.99;20541.50;5062107;28;20224;-66
2023/08/18 06:38:34;;;;;;;23.05;20.58;;;;;;;-141.84;93.80;20539.47;5062069;28;20236;-70
2023/08/18 06:43:44;;;;;;;23.08;20.27;;;;;;;-141.84;92.44;20576.03;5432666;22;20295;-67
2023/08/18 06:46:16;;;;;;;25.02;21.15;;;;;;;-141.84;92.70;20582.16;5041586;28;20571;-66
2023/08/18 06:48:44;;;;;;;24.38;20.77;;;;;;;-141.84;91.86;20582.16;5041493;28;20667;-67
2023/08/18 06:51:13;;;;;;;25.58;21.55;;;;;;;-141.84;92.40;20606.53;5041760;28;20672;-67
2023/08/18 06:53:41;;;;;;;25.05;21.92;;;;;;;-141.84;92.59;20584.19;5032992;28;20375;-69
2023/08/18 06:56:10;;;;;;;26.20;21.98;;;;;;;-141.84;92.38;20588.25;5041714;28;20760;-66
2023/08/18 06:58:38;;;;;;;27.27;22.88;;;;;;;-141.84;92.17;20588.25;5041958;28;20675;-69
2023/08/18 07:01:07;;;;;;;35.97;27.63;;;;;;;-141.84;91.39;20606.53;5041125;28;20629;-67
2023/08/18 07:03:37;;;;;;;31.88;25.83;;;;;;;-141.84;90.23;20616.69;5033815;28;20724;-68
2023/08/18 07:06:06;;;;;;;37.90;28.15;;;;;;;-141.84;89.93;20628.91;5057235;28;20263;-66
2023/08/18 07:08:34;;;;;;;38.90;27.98;;;;;;;-141.84;88.58;20663.47;5046248;28;20225;-68
2023/08/18 07:11:03;;;;;;;36.78;28.27;;;;;;;-141.84;88.56;20665.50;5044556;28;20512;-67
2023/08/18 07:13:31;;;;;;;39.22;29.63;;;;;;;-141.84;87.65;20681.75;5037384;28;20276;-67
2023/08/18 07:16:00;;;;;;;39.80;29.70;;;;;;;-141.84;87.76;20659.38;5044862;28;20279;-67
2023/08/18 07:18:28;;;;;;;37.15;27.90;;;;;;;-141.84;88.02;20665.50;5045076;28;20229;-67
2023/08/18 07:20:59;;;;;;;37.08;27.23;;;;;;;-141.84;88.97;20651.25;5044830;28;20691;-68
2023/08/18 07:23:28;;;;;;;35.22;25.98;;;;;;;-141.84;90.26;20649.22;5036876;28;20743;-67
2023/08/18 07:25:56;;;;;;;34.08;25.70;;;;;;;-141.84;89.78;20651.25;5044975;28;20206;-64
2023/08/18 07:28:25;;;;;;;39.47;28.42;;;;;;;-141.84;87.99;20679.72;5045314;28;20201;-67
2023/08/18 07:30:54;;;;;;;33.17;26.70;;;;;;;-141.84;89.44;20645.16;5058356;28;20236;-69
2023/08/18 07:33:22;;;;;;;33.00;25.30;;;;;;;-141.84;90.28;20637.03;5062469;28;20255;-66
2023/08/18 07:35:51;;;;;;;34.50;25.92;;;;;;;-141.84;90.62;20645.16;5064753;28;20260;-67
2023/08/18 07:38:21;;;;;;;38.85;30.15;;;;;;;-141.84;89.33;20637.03;5064354;28;20240;-68
2023/08/18 07:40:49;;;;;;;34.72;28.27;;;;;;;-141.84;88.90;20702.09;5065235;28;20285;-67
2023/08/18 07:43:18;;;;;;;35.53;27.52;;;;;;;-141.84;88.85;20700.03;5064021;28;20299;-67
2023/08/18 07:45:46;;;;;;;34.53;26.77;;;;;;;-141.84;87.46;20736.63;5050495;28;20658;-67
2023/08/18 07:48:15;;;;;;;35.75;27.23;;;;;;;-141.84;87.58;20744.78;5044442;28;20231;-67
2023/08/18 07:50:44;;;;;;;33.63;26.13;;;;;;;-141.84;86.04;20811.84;5042375;28;20792;-67
2023/08/18 07:53:12;;;;;;;33.10;26.63;;;;;;;-141.84;85.95;20815.91;5062797;28;20651;-65
2023/08/18 07:55:42;;;;;;;33.90;26.60;;;;;;;-141.84;84.08;20866.75;5039627;28;20699;-65
2023/08/18 07:58:10;;;;;;;30.77;25.58;;;;;;;-141.84;83.20;20870.81;5043640;28;20268;-64
2023/08/18 08:00:39;;;;;;;33.28;27.40;;;;;;;-141.84;82.23;20939.94;5043859;28;20261;-67
2023/08/18 08:03:08;;;;;;;33.20;26.67;;;;;;;-141.84;81.89;20956.19;5043715;28;20629;-67
2023/08/18 08:05:38;;;;;;;28.92;23.38;;;;;;;-141.84;79.18;21049.72;5046663;28;20221;-65
2023/08/18 08:08:07;;;;;;;27.90;22.90;;;;;;;-141.84;80.40;21023.28;5041863;28;20224;-67
2023/08/18 08:10:36;;;;;;;27.30;23.73;;;;;;;-141.84;80.43;21031.41;5038182;28;20279;-68
2023/08/18 08:13:06;;;;;;;24.83;21.80;;;;;;;-141.84;81.50;21047.69;5041140;28;20300;-66
2023/08/18 08:15:34;;;;;;;23.83;20.42;;;;;;;-141.84;81.27;21100.53;5033798;28;20629;-66
2023/08/18 08:18:05;;;;;;;21.08;18.65;;;;;;;-141.84;80.02;21155.44;5040777;28;20226;-65
2023/08/18 08:20:40;;;;;;;23.52;19.33;;;;;;;-141.84;79.10;21151.34;5040275;28;20217;-65
2023/08/18 08:23:08;;;;;;;24.65;22.00;;;;;;;-141.84;78.02;21289.59;5040732;28;20252;-66
2023/08/18 08:25:37;;;;;;;22.05;19.75;;;;;;;-141.84;74.71;21334.34;5033699;28;20302;-66
2023/08/18 08:28:07;;;;;;;22.73;19.52;;;;;;;-141.84;76.03;21259.13;5041718;28;20312;-67
2023/08/18 08:30:38;;;;;;;21.40;19.10;;;;;;;-141.84;76.93;21293.69;5040449;28;20312;-65
2023/08/18 08:33:08;;;;;;;21.35;18.55;;;;;;;-141.84;76.55;21295.72;5041755;28;20270;-64
2023/08/18 08:35:37;;;;;;;18.23;16.27;;;;;;;-141.84;76.44;21326.22;5031685;28;20231;-65
2023/08/18 08:38:06;;;;;;;20.33;17.52;;;;;;;-141.84;76.07;21368.91;5041714;28;20228;-65
2023/08/18 08:40:38;;;;;;;19.52;15.50;;;;;;;-141.84;73.50;21436.00;5041130;28;20221;-65
2023/08/18 08:43:07;;;;;;;19.15;16.95;;;;;;;-141.84;74.90;21360.78;5039824;28;20711;-64
2023/08/18 08:45:38;;;;;;;20.40;18.27;;;;;;;-141.84;75.48;21336.38;5032037;28;20228;-66
2023/08/18 08:48:11;;;;;;;19.08;16.63;;;;;;;-141.84;75.63;21348.56;5039686;28;20710;-65
2023/08/18 08:50:45;;;;;;;17.02;15.27;;;;;;;-141.84;75.37;21403.47;5041745;28;20252;-65
2023/08/18 08:53:19;;;;;;;20.27;17.92;;;;;;;-141.84;74.59;21397.38;5041803;28;20284;-72
2023/08/18 08:55:49;;;;;;;17.50;15.70;;;;;;;-141.84;74.68;21391.28;5040799;28;20212;-70
2023/08/18 08:58:19;;;;;;;15.82;14.23;;;;;;;-141.84;75.46;21383.13;5020747;28;20780;-66
2023/08/18 09:00:50;;;;;;;17.38;15.57;;;;;;;-141.84;76.07;21342.47;5038949;28;20730;-66
2023/08/18 09:03:20;;;;;;;18.40;16.40;;;;;;;-141.84;76.33;21314.00;5040004;28;20679;-66
2023/08/18 09:05:49;;;;;;;20.23;18.13;;;;;;;-141.84;75.52;21346.53;5049014;28;20821;-66
2023/08/18 09:08:17;;;;;;;21.02;18.15;;;;;;;-141.84;75.99;21372.97;5043418;28;20388;-66
2023/08/18 09:10:46;;;;;;;21.90;19.60;;;;;;;-141.84;72.98;21484.78;5040159;28;20225;-67
2023/08/18 09:13:15;;;;;;;20.50;18.50;;;;;;;-141.84;73.85;21431.94;5059201;28;20229;-68
2023/08/18 09:15:45;;;;;;;17.15;15.35;;;;;;;-141.84;74.26;21456.34;5035390;28;20265;-67
2023/08/18 09:18:14;;;;;;;16.63;14.93;;;;;;;-141.84;71.86;21562.06;5040015;28;20294;-69
2023/08/18 09:20:44;;;;;;;16.88;15.20;;;;;;;-141.84;71.74;21604.75;5039730;28;20300;-69
2023/08/18 09:23:13;;;;;;;17.02;15.32;;;;;;;-141.84;72.43;21614.94;5039551;28;20240;-66
2023/08/18 09:25:41;;;;;;;15.02;13.50;;;;;;;-141.84;72.96;21604.75;5031951;28;20661;-65
2023/08/18 09:28:10;;;;;;;17.50;15.70;;;;;;;-141.84;72.46;21616.97;5039201;28;20687;-67
2023/08/18 09:30:45;;;;;;;18.67;16.60;;;;;;;-141.84;71.35;21645.44;5038501;28;20227;-65
2023/08/18 09:33:13;;;;;;;18.08;16.27;;;;;;;-141.84;69.49;21745.06;5040411;28;20224;-66
2023/08/18 09:35:42;;;;;;;18.42;16.60;;;;;;;-141.84;70.57;21680.00;5031524;28;21290;-66
2023/08/18 09:38:14;;;;;;;22.38;18.38;;;;;;;-141.84;72.12;21627.13;5038352;28;20225;-67
2023/08/18 09:40:42;;;;;;;17.27;15.48;;;;;;;-141.84;71.75;21606.78;5039205;28;20241;-69
2023/08/18 09:43:16;;;;;;;18.00;16.08;;;;;;;-141.84;71.87;21621.03;5037059;28;20237;-66
2023/08/18 09:45:47;;;;;;;18.98;16.98;;;;;;;-141.84;71.37;21614.94;5031902;28;20224;-67
2023/08/18 09:48:17;;;;;;;19.42;17.30;;;;;;;-141.84;70.76;21639.31;5039308;28;20274;-65
2023/08/18 09:50:50;;;;;;;17.10;15.30;;;;;;;-141.84;71.80;21641.34;5039602;28;20278;-66
2023/08/18 09:53:22;;;;;;;17.17;15.43;;;;;;;-141.84;71.63;21651.53;5039145;28;20279;-67
2023/08/18 09:55:53;;;;;;;19.83;17.73;;;;;;;-141.84;71.27;21682.03;5057553;28;20236;-61
2023/08/18 09:58:32;;;;;;;17.00;15.20;;;;;;;-141.84;70.71;21718.63;5058632;28;20356;-63
2023/08/18 10:01:05;;;;;;;17.85;15.95;;;;;;;-141.84;69.30;21775.56;5037047;28;20236;-62
2023/08/18 10:03:37;;;;;;;15.80;14.20;;;;;;;-141.84;69.81;21771.50;5030765;28;20228;-63
2023/08/18 10:06:07;;;;;;;17.85;16.05;;;;;;;-141.84;70.16;21743.03;5043017;28;20838;-62
2023/08/18 10:08:36;;;;;;;15.77;14.18;;;;;;;-141.84;69.23;21867.06;5039280;28;20225;-61
2023/08/18 10:11:05;;;;;;;14.65;13.15;;;;;;;-141.84;68.43;21903.66;5038819;28;20904;-62
2023/08/18 10:13:35;;;;;;;14.40;13.05;;;;;;;-141.84;68.55;21895.53;5031260;28;20205;-61
2023/08/18 10:16:06;;;;;;;14.88;13.40;;;;;;;-141.84;68.69;21895.53;5038487;28;20677;-66
2023/08/18 10:18:35;;;;;;;16.92;15.25;;;;;;;-141.84;67.37;21909.75;5038905;28;20229;-67
2023/08/18 10:21:04;;;;;;;15.75;14.23;;;;;;;-141.84;67.51;21954.50;5037085;28;20279;-65
2023/08/18 10:23:34;;;;;;;16.25;14.65;;;;;;;-141.84;68.27;21903.66;5029393;28;20237;-66
2023/08/18 10:26:05;;;;;;;16.02;14.43;;;;;;;-141.84;67.69;21952.47;5038475;28;20251;-67
2023/08/18 10:28:36;;;;;;;17.20;15.60;;;;;;;-141.84;67.28;21966.69;5038504;28;20231;-67
2023/08/18 10:31:09;;;;;;;16.73;15.13;;;;;;;-141.84;65.02;22098.88;5037491;28;20241;-67
2023/08/18 10:33:43;;;;;;;18.02;16.27;;;;;;;-141.84;65.05;22058.22;5030644;28;20229;-66
2023/08/18 10:36:21;;;;;;;18.05;16.25;;;;;;;-141.84;64.48;22119.22;5037281;28;20718;-65
2023/08/18 10:38:51;;;;;;;16.65;15.05;;;;;;;-141.84;64.46;22153.78;5038490;28;20256;-66
2023/08/18 10:41:26;;;;;;;15.20;13.75;;;;;;;-141.84;65.23;22086.69;5040167;28;20567;-66
2023/08/18 10:43:57;;;;;;;15.25;13.80;;;;;;;-141.84;66.26;22137.50;5044576;28;20239;-65
2023/08/18 10:46:35;;;;;;;16.45;14.90;;;;;;;-141.84;66.05;22127.34;5045673;28;20237;-65
2023/08/18 10:49:03;;;;;;;14.35;13.15;;;;;;;-141.84;65.53;22182.25;5045163;28;20247;-65
2023/08/18 10:51:32;;;;;;;16.35;14.75;;;;;;;-141.84;62.53;22355.13;5037319;28;20240;-65
2023/08/18 10:54:00;;;;;;;17.85;16.10;;;;;;;-141.84;64.18;22204.63;5048052;28;20310;-66
2023/08/18 10:56:30;;;;;;;16.55;15.00;;;;;;;-141.84;63.85;22269.69;5053322;28;20291;-65
2023/08/18 10:58:58;;;;;;;16.55;15.05;;;;;;;-141.84;65.11;22145.66;5044327;28;20293;-65
2023/08/18 11:01:28;;;;;;;16.05;14.55;;;;;;;-141.84;64.60;22214.78;5035880;28;20236;-68
2023/08/18 11:03:58;;;;;;;14.77;13.38;;;;;;;-141.84;65.18;22176.16;5044712;28;20229;-67
2023/08/18 11:06:27;;;;;;;14.38;13.07;;;;;;;-141.84;66.79;22111.09;5044247;28;20727;-67
2023/08/18 11:08:55;;;;;;;15.77;14.32;;;;;;;-141.84;65.28;22239.19;5044698;28;20225;-68